Time;durP1;ratioP1;P1;durP2;ratioP2;P2;SDS_P1;SDS_P2;PMS_P1;PMS_P2;Temp;Humidity;BMP_temperature;BMP_pressure;BME280_temperature;BME280_humidity;BME280_pressure;Samples;Min_cycle;Max_cycle;Signal;HPM_P1;HPM_P2
2021/11/04 00:00:43;;;;;;;6.70;4.33;;;7.50;99.90;;;;;;5034795;28;20172;-70
2021/11/04 00:03:09;;;;;;;6.83;4.90;;;7.40;99.90;;;;;;5034914;28;20157;-71
2021/11/04 00:05:34;;;;;;;5.87;5.20;;;7.40;99.90;;;;;;5034674;28;20865;-72
2021/11/04 00:08:03;;;;;;;4.73;4.30;;;7.40;99.90;;;;;;5034722;28;20523;-72
2021/11/04 00:10:29;;;;;;;8.07;4.47;;;7.40;99.90;;;;;;5034873;28;20159;-71
2021/11/04 00:12:54;;;;;;;5.30;4.80;;;7.40;99.90;;;;;;5034593;28;20757;-71
2021/11/04 00:15:20;;;;;;;5.57;4.90;;;7.40;99.90;;;;;;5034093;28;20400;-71
2021/11/04 00:17:46;;;;;;;8.50;4.73;;;7.30;99.90;;;;;;5033949;28;20196;-71
2021/11/04 00:20:14;;;;;;;9.80;4.97;;;7.40;99.90;;;;;;5034347;28;20881;-71
2021/11/04 00:22:40;;;;;;;6.03;5.17;;;7.30;99.90;;;;;;5032900;28;20258;-70
2021/11/04 00:25:13;;;;;;;6.57;5.03;;;7.30;99.90;;;;;;5033910;28;20553;-71
2021/11/04 00:27:39;;;;;;;7.73;6.80;;;7.30;99.90;;;;;;5034518;28;20825;-72
2021/11/04 00:30:06;;;;;;;9.10;6.17;;;7.30;99.90;;;;;;5036776;28;20418;-72
2021/11/04 00:32:32;;;;;;;13.53;5.03;;;7.30;99.90;;;;;;5035497;28;20654;-70
2021/11/04 00:34:57;;;;;;;7.90;5.90;;;7.30;99.90;;;;;;5033877;28;20406;-71
2021/11/04 00:37:23;;;;;;;7.17;6.40;;;7.30;99.90;;;;;;5033800;28;20719;-69
2021/11/04 00:39:49;;;;;;;6.63;5.87;;;7.20;99.90;;;;;;5033554;28;20238;-70
2021/11/04 00:42:14;;;;;;;9.30;5.30;;;7.20;99.90;;;;;;5033088;28;20233;-70
2021/11/04 00:44:40;;;;;;;9.20;5.87;;;7.20;99.90;;;;;;5033822;28;20552;-71
2021/11/04 00:47:06;;;;;;;9.03;4.93;;;7.20;99.90;;;;;;5034349;28;20168;-69
2021/11/04 00:49:31;;;;;;;7.70;5.67;;;7.20;99.90;;;;;;5033598;28;20183;-70
2021/11/04 00:51:57;;;;;;;15.00;5.93;;;7.20;99.90;;;;;;5033305;28;20256;-70
2021/11/04 00:54:22;;;;;;;6.17;5.47;;;7.20;99.90;;;;;;5033276;28;20175;-70
2021/11/04 00:56:48;;;;;;;7.90;5.20;;;7.20;99.90;;;;;;5033458;28;20178;-69
2021/11/04 00:59:14;;;;;;;12.90;6.53;;;7.20;99.90;;;;;;5032135;28;20197;-68
2021/11/04 01:01:39;;;;;;;10.13;6.73;;;7.20;99.90;;;;;;5033405;28;20176;-68
2021/11/04 01:04:05;;;;;;;7.20;5.13;;;7.20;99.90;;;;;;5031678;28;20249;-69
2021/11/04 01:06:30;;;;;;;8.43;6.50;;;7.10;99.90;;;;;;5033329;28;20172;-71
2021/11/04 01:08:56;;;;;;;9.90;7.23;;;7.20;99.90;;;;;;5033177;28;20245;-69
2021/11/04 01:11:23;;;;;;;9.67;6.50;;;7.10;99.90;;;;;;5033245;28;20514;-70
2021/11/04 01:13:49;;;;;;;7.37;5.50;;;7.10;99.90;;;;;;5027973;28;20172;-71
2021/11/04 01:16:17;;;;;;;7.87;5.13;;;7.10;99.90;;;;;;5016475;28;20407;-71
2021/11/04 01:18:43;;;;;;;10.77;7.50;;;7.20;99.90;;;;;;5034162;28;20621;-71
2021/11/04 01:21:12;;;;;;;7.50;6.57;;;7.10;99.90;;;;;;5035444;28;20407;-72
2021/11/04 01:23:38;;;;;;;8.20;6.43;;;7.10;99.90;;;;;;5027219;28;20573;-73
2021/11/04 01:26:04;;;;;;;7.57;5.60;;;7.10;99.90;;;;;;5015559;28;20400;-72
2021/11/04 01:28:30;;;;;;;8.60;7.03;;;7.10;99.90;;;;;;5015219;28;20423;-71
2021/11/04 01:30:56;;;;;;;5.87;5.10;;;7.10;99.90;;;;;;5015594;28;20406;-70
2021/11/04 01:33:21;;;;;;;10.93;6.30;;;7.00;99.90;;;;;;5016472;28;20176;-70
2021/11/04 01:35:47;;;;;;;11.43;6.70;;;7.00;99.90;;;;;;5021006;28;20177;-72
2021/11/04 01:38:12;;;;;;;12.33;6.00;;;6.90;99.90;;;;;;5018035;28;20187;-73
2021/11/04 01:40:41;;;;;;;14.13;6.97;;;6.90;99.90;;;;;;5019929;28;20169;-73
2021/11/04 01:43:08;;;;;;;11.30;7.20;;;6.90;99.90;;;;;;5016986;28;20168;-72
2021/11/04 01:45:33;;;;;;;11.93;6.50;;;6.90;99.90;;;;;;5017321;28;20488;-71
2021/11/04 01:48:02;;;;;;;9.73;5.80;;;6.90;99.90;;;;;;5017190;28;20514;-72
2021/11/04 01:50:28;;;;;;;9.10;6.73;;;6.80;99.90;;;;;;5019055;28;20163;-71
2021/11/04 01:52:53;;;;;;;8.90;5.77;;;6.80;99.90;;;;;;5015540;28;20399;-73
2021/11/04 01:55:23;;;;;;;11.17;6.93;;;6.80;99.90;;;;;;5015732;28;20974;-72
2021/11/04 01:57:49;;;;;;;9.77;5.20;;;6.80;99.90;;;;;;5015458;28;20195;-72
2021/11/04 02:00:18;;;;;;;6.97;5.63;;;6.70;99.90;;;;;;5015164;28;20412;-72
2021/11/04 02:02:52;;;;;;;8.90;5.20;;;6.70;99.90;;;;;;5014709;28;20929;-72
2021/11/04 02:05:21;;;;;;;10.40;6.17;;;6.70;99.90;;;;;;5015408;28;20489;-72
2021/11/04 02:08:07;;;;;;;9.83;7.00;;;6.70;99.90;;;;;;5015104;28;20489;-72
2021/11/04 02:10:39;;;;;;;9.77;7.73;;;6.70;99.90;;;;;;5014825;28;20403;-72
2021/11/04 02:13:16;;;;;;;10.70;6.80;;;6.70;99.90;;;;;;5014906;28;20473;-71
2021/11/04 02:15:43;;;;;;;10.13;9.23;;;6.70;99.90;;;;;;5014966;28;20404;-73
2021/11/04 02:18:10;;;;;;;9.90;6.80;;;6.70;99.90;;;;;;5014408;28;20447;-70
2021/11/04 02:20:52;;;;;;;8.40;7.00;;;6.70;99.90;;;;;;5015002;28;20422;-71
2021/11/04 02:23:28;;;;;;;9.63;6.10;;;6.70;99.90;;;;;;5014649;28;20411;-71
2021/11/04 02:25:55;;;;;;;9.30;6.77;;;6.60;99.90;;;;;;5015184;28;20548;-71
2021/11/04 02:28:22;;;;;;;8.47;5.43;;;6.60;99.90;;;;;;5015108;28;20482;-71
2021/11/04 02:30:48;;;;;;;8.80;7.87;;;6.50;99.90;;;;;;5015581;28;20411;-71
2021/11/04 02:33:19;;;;;;;10.37;6.67;;;6.50;99.90;;;;;;5015318;28;20439;-73
2021/11/04 02:35:51;;;;;;;16.80;8.70;;;6.50;99.90;;;;;;5015513;28;20408;-71
2021/11/04 02:38:21;;;;;;;14.20;9.50;;;6.50;99.90;;;;;;5015128;28;20534;-71
2021/11/04 02:40:48;;;;;;;13.63;8.23;;;6.40;99.90;;;;;;5015299;28;20945;-72
2021/11/04 02:43:15;;;;;;;9.80;7.67;;;6.40;99.90;;;;;;5028932;28;20430;-72
2021/11/04 02:45:41;;;;;;;10.90;6.83;;;6.40;99.90;;;;;;5035746;28;20973;-70
2021/11/04 02:48:07;;;;;;;7.57;5.10;;;6.40;99.90;;;;;;5034585;28;20512;-72
2021/11/04 02:50:34;;;;;;;14.00;6.50;;;6.40;99.90;;;;;;5033910;28;20422;-71
2021/11/04 02:52:59;;;;;;;14.57;7.37;;;6.40;99.90;;;;;;5035253;28;20445;-72
2021/11/04 02:55:33;;;;;;;9.00;6.67;;;6.40;99.90;;;;;;5035049;28;20418;-72
2021/11/04 02:58:01;;;;;;;13.50;9.17;;;6.40;99.90;;;;;;5034937;28;20195;-73
2021/11/04 03:00:27;;;;;;;14.53;7.23;;;6.40;99.90;;;;;;5036037;28;20433;-74
2021/11/04 03:02:52;;;;;;;17.23;8.13;;;6.40;99.90;;;;;;5035774;28;20410;-73
2021/11/04 03:05:18;;;;;;;14.30;8.47;;;6.40;99.90;;;;;;5034421;28;20253;-72
2021/11/04 03:07:44;;;;;;;17.27;8.97;;;6.40;99.90;;;;;;5038969;28;20518;-73
2021/11/04 03:10:09;;;;;;;13.30;6.70;;;6.40;99.90;;;;;;5039206;28;20175;-72
2021/11/04 03:12:35;;;;;;;12.50;8.20;;;6.40;99.90;;;;;;5039162;28;20172;-73
2021/11/04 03:15:02;;;;;;;12.73;9.10;;;6.40;99.90;;;;;;5039877;28;20184;-72
2021/11/04 03:17:28;;;;;;;10.93;8.03;;;6.30;99.90;;;;;;5039050;28;20639;-72
2021/11/04 03:19:54;;;;;;;13.90;8.17;;;6.40;99.90;;;;;;5038435;28;20441;-72
2021/11/04 03:22:20;;;;;;;12.07;9.10;;;6.40;99.90;;;;;;5039269;28;20414;-71
2021/11/04 03:24:47;;;;;;;12.93;8.93;;;6.40;99.90;;;;;;5038046;28;20523;-72
2021/11/04 03:27:14;;;;;;;13.43;9.00;;;6.40;99.90;;;;;;5038529;28;20898;-72
2021/11/04 03:29:42;;;;;;;19.50;10.83;;;6.40;99.90;;;;;;5038572;28;20426;-73
2021/11/04 03:32:14;;;;;;;14.10;9.23;;;6.50;99.90;;;;;;5038710;28;20775;-72
2021/11/04 03:34:42;;;;;;;14.90;8.60;;;6.50;99.90;;;;;;5038505;28;20900;-72
2021/11/04 03:37:08;;;;;;;16.80;10.40;;;6.50;99.90;;;;;;5038609;28;20884;-72
2021/11/04 03:39:34;;;;;;;13.97;10.50;;;6.50;99.90;;;;;;5036611;28;20458;-72
2021/11/04 03:42:03;;;;;;;13.37;9.80;;;6.50;99.90;;;;;;5038943;28;20606;-72
2021/11/04 03:44:31;;;;;;;15.50;9.33;;;6.60;99.90;;;;;;5038081;28;20454;-72
2021/11/04 03:47:02;;;;;;;14.80;9.57;;;6.60;99.90;;;;;;5037801;28;20421;-72
2021/11/04 03:49:32;;;;;;;20.77;11.97;;;6.60;99.90;;;;;;5038114;28;20783;-71
2021/11/04 03:52:00;;;;;;;15.63;11.57;;;6.70;99.90;;;;;;5037014;28;20402;-71
2021/11/04 03:54:32;;;;;;;16.43;10.27;;;6.60;99.90;;;;;;5036253;28;20444;-71
2021/11/04 03:57:03;;;;;;;16.17;10.17;;;6.60;99.90;;;;;;5037511;28;20425;-74
2021/11/04 03:59:31;;;;;;;17.77;10.90;;;6.60;99.90;;;;;;5037756;28;20442;-72
2021/11/04 04:02:00;;;;;;;19.57;11.70;;;6.60;99.90;;;;;;5037042;28;20564;-72
2021/11/04 04:04:26;;;;;;;19.83;11.87;;;6.70;99.90;;;;;;5019445;28;20458;-72
2021/11/04 04:07:00;;;;;;;16.67;10.50;;;6.70;99.90;;;;;;5036780;28;20417;-72
2021/11/04 04:09:29;;;;;;;23.07;11.50;;;6.60;99.90;;;;;;5038277;28;20521;-73
2021/11/04 04:11:58;;;;;;;17.27;10.60;;;6.70;99.90;;;;;;5038204;28;20408;-72
2021/11/04 04:14:31;;;;;;;19.77;10.73;;;6.70;99.90;;;;;;5036629;28;20417;-72
2021/11/04 04:17:05;;;;;;;15.93;9.50;;;6.60;99.90;;;;;;5036539;28;20406;-72
2021/11/04 04:19:33;;;;;;;15.53;10.43;;;6.60;99.90;;;;;;5036272;28;20480;-71
2021/11/04 04:22:04;;;;;;;15.90;10.47;;;6.60;99.90;;;;;;5037005;28;20406;-71
2021/11/04 04:24:39;;;;;;;23.27;12.47;;;6.50;99.90;;;;;;5035838;28;20484;-71
2021/11/04 04:27:16;;;;;;;18.77;12.27;;;6.60;99.90;;;;;;5035794;28;20421;-71
2021/11/04 04:29:42;;;;;;;17.60;10.90;;;6.50;99.90;;;;;;5036526;28;20425;-72
2021/11/04 04:32:08;;;;;;;20.17;13.30;;;6.50;99.90;;;;;;5035309;28;20962;-72
2021/11/04 04:34:39;;;;;;;22.40;11.90;;;6.50;99.90;;;;;;5036865;28;20493;-72
2021/11/04 04:37:07;;;;;;;16.67;11.93;;;6.50;99.90;;;;;;5036940;28;20434;-71
2021/11/04 04:39:33;;;;;;;19.77;12.43;;;6.60;99.90;;;;;;5036562;28;20430;-72
2021/11/04 04:42:08;;;;;;;15.93;11.40;;;6.60;99.90;;;;;;5035797;28;20904;-71
2021/11/04 04:44:35;;;;;;;17.77;11.57;;;6.50;99.90;;;;;;5036100;28;20459;-72
2021/11/04 04:47:09;;;;;;;18.33;11.53;;;6.60;99.90;;;;;;5036376;28;20524;-70
2021/11/04 04:49:38;;;;;;;23.27;13.20;;;6.50;99.90;;;;;;5037132;28;20434;-73
2021/11/04 04:52:10;;;;;;;16.90;11.37;;;6.60;99.90;;;;;;5037584;28;20410;-71
2021/11/04 04:54:36;;;;;;;16.67;10.07;;;6.60;99.90;;;;;;5036818;28;20406;-70
2021/11/04 04:57:04;;;;;;;19.87;12.17;;;6.60;99.90;;;;;;5036977;28;20414;-71
2021/11/04 04:59:57;;;;;;;20.87;12.57;;;6.60;99.90;;;;;;5036414;28;20504;-71
2021/11/04 05:02:36;;;;;;;17.60;11.20;;;6.60;99.90;;;;;;5036682;28;20735;-71
2021/11/04 05:05:08;;;;;;;22.37;11.43;;;6.60;99.90;;;;;;5036463;28;20513;-71
2021/11/04 05:07:39;;;;;;;22.03;14.20;;;6.50;99.90;;;;;;5035679;28;20411;-70
2021/11/04 05:10:11;;;;;;;18.67;12.47;;;6.60;99.90;;;;;;5034802;28;20415;-71
2021/11/04 05:12:42;;;;;;;19.77;11.03;;;6.50;99.90;;;;;;5035961;28;20409;-71
2021/11/04 05:15:08;;;;;;;25.00;12.00;;;6.60;99.90;;;;;;5036231;28;20411;-71
2021/11/04 05:17:34;;;;;;;15.90;11.30;;;6.60;99.90;;;;;;5036114;28;20959;-71
2021/11/04 05:20:01;;;;;;;18.60;12.33;;;6.60;99.90;;;;;;5037172;28;20184;-71
2021/11/04 05:22:26;;;;;;;17.20;10.57;;;6.60;99.90;;;;;;5037810;28;20420;-70
2021/11/04 05:24:52;;;;;;;16.77;10.67;;;6.60;99.90;;;;;;5037126;28;20906;-72
2021/11/04 05:27:17;;;;;;;20.23;13.00;;;6.60;99.90;;;;;;5036907;28;20290;-72
2021/11/04 05:29:43;;;;;;;22.63;13.40;;;6.60;99.90;;;;;;5036434;28;20690;-73
2021/11/04 05:32:08;;;;;;;27.67;12.73;;;6.60;99.90;;;;;;5037432;28;20251;-73
2021/11/04 05:34:36;;;;;;;23.97;11.53;;;6.60;99.90;;;;;;5037509;28;20198;-71
2021/11/04 05:37:01;;;;;;;25.50;13.30;;;6.60;99.90;;;;;;5040221;28;20172;-72
2021/11/04 05:39:27;;;;;;;16.20;11.53;;;6.60;99.90;;;;;;5039168;28;20492;-73
2021/11/04 05:41:52;;;;;;;23.83;13.57;;;6.60;99.90;;;;;;5039160;28;20175;-72
2021/11/04 05:44:18;;;;;;;24.90;13.20;;;6.60;99.90;;;;;;5041160;28;20245;-74
2021/11/04 05:46:43;;;;;;;15.03;10.93;;;6.60;99.90;;;;;;5040662;28;20259;-72
2021/11/04 05:49:09;;;;;;;21.27;12.10;;;6.60;99.90;;;;;;5038412;28;20659;-71
2021/11/04 05:51:34;;;;;;;24.80;13.10;;;6.60;99.90;;;;;;5042609;28;20210;-71
2021/11/04 05:54:00;;;;;;;21.30;12.20;;;6.60;99.90;;;;;;5039326;28;20690;-72
2021/11/04 05:56:25;;;;;;;23.70;14.67;;;6.60;99.90;;;;;;5039926;28;20527;-73
2021/11/04 05:58:51;;;;;;;18.20;12.47;;;6.60;99.90;;;;;;5040356;28;20192;-71
2021/11/04 06:01:16;;;;;;;25.03;13.27;;;6.60;99.90;;;;;;5040264;28;20179;-71
2021/11/04 06:03:42;;;;;;;23.40;13.70;;;6.60;99.90;;;;;;5036315;28;20205;-71
2021/11/04 06:06:07;;;;;;;23.50;12.77;;;6.60;99.90;;;;;;5038959;28;20164;-71
2021/11/04 06:08:32;;;;;;;20.83;12.00;;;6.70;99.90;;;;;;5039596;28;20192;-71
2021/11/04 06:10:58;;;;;;;20.83;12.17;;;6.70;99.90;;;;;;5043460;28;20172;-71
2021/11/04 06:13:23;;;;;;;19.77;12.60;;;6.60;99.90;;;;;;5036971;28;20214;-71
2021/11/04 06:15:49;;;;;;;19.40;12.30;;;6.70;99.90;;;;;;5036474;28;20179;-69
2021/11/04 06:18:15;;;;;;;19.90;9.77;;;6.70;99.90;;;;;;5035338;28;20679;-71
2021/11/04 06:20:40;;;;;;;23.60;12.10;;;6.60;99.90;;;;;;5036122;28;20172;-71
2021/11/04 06:23:06;;;;;;;19.30;12.80;;;6.70;99.90;;;;;;5035992;28;20163;-71
2021/11/04 06:25:31;;;;;;;23.97;13.33;;;6.70;99.90;;;;;;5035973;28;20195;-71
2021/11/04 06:27:57;;;;;;;18.03;11.30;;;6.70;99.90;;;;;;5039104;28;20585;-71
2021/11/04 06:30:22;;;;;;;19.30;12.20;;;6.70;99.90;;;;;;5037975;28;20163;-71
2021/11/04 06:32:49;;;;;;;18.67;13.77;;;6.70;99.90;;;;;;5036688;28;20174;-71
2021/11/04 06:35:16;;;;;;;23.73;13.20;;;6.70;99.90;;;;;;5035907;28;20665;-72
2021/11/04 06:37:42;;;;;;;19.10;12.23;;;6.70;99.90;;;;;;5035823;28;21011;-72
2021/11/04 06:40:09;;;;;;;19.70;12.17;;;6.70;99.90;;;;;;5036138;28;20438;-72
2021/11/04 06:42:36;;;;;;;22.40;12.50;;;6.70;99.90;;;;;;5035328;28;20608;-71
2021/11/04 06:45:02;;;;;;;21.17;13.80;;;6.70;99.90;;;;;;5035368;28;20445;-71
2021/11/04 06:47:36;;;;;;;24.53;13.27;;;6.80;99.90;;;;;;5039579;28;20567;-71
2021/11/04 06:50:03;;;;;;;22.90;11.97;;;6.80;99.90;;;;;;5034387;28;20401;-73
2021/11/04 06:52:35;;;;;;;15.27;10.27;;;6.70;99.90;;;;;;5035384;28;20408;-72
2021/11/04 06:55:03;;;;;;;22.70;12.67;;;6.70;99.90;;;;;;5034119;28;20467;-72
2021/11/04 06:57:31;;;;;;;23.07;13.10;;;6.80;99.90;;;;;;5035381;28;20402;-72
2021/11/04 06:59:58;;;;;;;21.57;12.17;;;6.80;99.90;;;;;;5034252;28;20487;-72
2021/11/04 07:02:32;;;;;;;25.37;14.33;;;6.80;99.90;;;;;;5035914;28;20406;-72
2021/11/04 07:05:00;;;;;;;21.43;12.13;;;6.70;99.90;;;;;;5036678;28;20450;-71
2021/11/04 07:07:26;;;;;;;22.90;12.83;;;6.80;99.90;;;;;;5034620;28;20406;-71
2021/11/04 07:09:51;;;;;;;21.37;11.97;;;6.80;99.90;;;;;;5033500;28;20787;-70
2021/11/04 07:12:17;;;;;;;21.07;11.37;;;6.80;99.90;;;;;;5032753;28;20544;-71
2021/11/04 07:14:44;;;;;;;19.70;11.87;;;6.80;99.90;;;;;;5031752;28;20655;-71
2021/11/04 07:17:11;;;;;;;21.30;13.33;;;6.80;99.90;;;;;;5031488;28;20175;-71
2021/11/04 07:19:37;;;;;;;20.50;10.47;;;6.80;99.90;;;;;;5031200;28;20448;-70
2021/11/04 07:22:10;;;;;;;22.63;12.93;;;6.80;99.90;;;;;;5030874;28;20425;-70
2021/11/04 07:24:59;;;;;;;24.40;13.07;;;6.80;99.90;;;;;;5031193;28;20544;-69
2021/11/04 07:27:45;;;;;;;19.70;12.47;;;6.80;99.90;;;;;;5031229;28;20410;-69
2021/11/04 07:30:20;;;;;;;19.00;13.03;;;6.80;99.90;;;;;;5031333;28;20406;-69
2021/11/04 07:32:48;;;;;;;19.77;12.90;;;6.90;99.90;;;;;;5031170;28;20421;-69
2021/11/04 07:35:16;;;;;;;14.17;9.27;;;6.90;99.90;;;;;;5030951;28;20414;-70
2021/11/04 07:37:43;;;;;;;20.97;12.20;;;6.90;99.90;;;;;;5030879;28;20425;-70
2021/11/04 07:40:09;;;;;;;17.87;10.93;;;7.00;99.90;;;;;;5030712;28;20497;-70
2021/11/04 07:42:37;;;;;;;22.27;13.70;;;6.90;99.90;;;;;;5029854;28;20429;-69
2021/11/04 07:45:03;;;;;;;25.50;13.53;;;7.00;99.90;;;;;;5030601;28;20493;-70
2021/11/04 07:47:29;;;;;;;18.83;12.57;;;6.90;99.90;;;;;;5030794;28;20481;-69
2021/11/04 07:49:54;;;;;;;22.20;11.43;;;6.90;99.90;;;;;;5029306;28;20434;-68
2021/11/04 07:52:20;;;;;;;22.77;13.20;;;7.00;99.90;;;;;;5032822;28;20627;-68
2021/11/04 07:54:46;;;;;;;22.23;11.40;;;7.00;99.90;;;;;;5034699;28;20233;-71
2021/11/04 07:57:11;;;;;;;22.10;12.17;;;7.00;99.90;;;;;;5034802;28;20199;-72
2021/11/04 07:59:37;;;;;;;22.53;11.67;;;7.00;99.90;;;;;;5034599;28;20206;-71
2021/11/04 08:02:03;;;;;;;23.00;14.03;;;7.00;99.90;;;;;;5034651;28;20176;-71
2021/11/04 08:04:29;;;;;;;22.70;10.70;;;7.00;99.90;;;;;;5034225;28;20463;-70
2021/11/04 08:06:55;;;;;;;22.27;12.83;;;7.00;99.90;;;;;;5035986;28;20171;-73
2021/11/04 08:09:21;;;;;;;19.07;13.10;;;7.00;99.90;;;;;;5034613;28;20484;-73
2021/11/04 08:11:47;;;;;;;20.43;13.57;;;7.10;99.90;;;;;;5035051;28;20831;-71
2021/11/04 08:14:13;;;;;;;21.73;12.93;;;7.10;99.90;;;;;;5034541;28;20175;-70
2021/11/04 08:16:38;;;;;;;26.13;14.10;;;7.10;99.90;;;;;;5034212;28;20410;-71
2021/11/04 08:19:04;;;;;;;20.00;12.03;;;7.00;99.90;;;;;;5030807;28;20937;-70
2021/11/04 08:21:35;;;;;;;26.07;15.97;;;7.00;99.90;;;;;;5027271;28;20179;-71
2021/11/04 08:24:18;;;;;;;18.10;11.20;;;6.90;99.90;;;;;;5026101;28;20246;-70
2021/11/04 08:26:53;;;;;;;23.03;11.17;;;6.90;99.90;;;;;;5014372;28;20414;-71
2021/11/04 08:29:18;;;;;;;18.07;11.57;;;6.90;99.90;;;;;;5027337;28;20422;-70
2021/11/04 08:31:44;;;;;;;20.70;13.00;;;6.90;99.90;;;;;;5014154;28;20402;-69
2021/11/04 08:34:09;;;;;;;19.77;11.40;;;6.90;99.90;;;;;;5014187;28;20709;-69
2021/11/04 08:36:35;;;;;;;18.67;12.00;;;6.80;99.90;;;;;;5023436;28;20603;-71
2021/11/04 08:39:00;;;;;;;20.10;12.30;;;6.80;99.90;;;;;;5023486;28;20283;-73
2021/11/04 08:41:26;;;;;;;15.33;10.07;;;6.90;99.90;;;;;;5015044;28;20188;-74
2021/11/04 08:43:51;;;;;;;18.10;9.57;;;6.90;99.90;;;;;;5014767;28;20208;-74
2021/11/04 08:46:17;;;;;;;13.43;10.93;;;6.80;99.90;;;;;;5014324;28;20195;-73
2021/11/04 08:48:42;;;;;;;21.17;11.50;;;6.80;99.90;;;;;;5032654;28;20199;-71
2021/11/04 08:51:08;;;;;;;15.47;9.03;;;6.90;99.90;;;;;;5033790;28;20198;-70
2021/11/04 08:53:34;;;;;;;20.97;10.70;;;6.90;99.90;;;;;;5027492;28;20175;-73
2021/11/04 08:55:59;;;;;;;19.63;10.83;;;6.80;99.90;;;;;;5025670;28;20171;-69
2021/11/04 08:58:25;;;;;;;18.73;10.70;;;6.90;99.90;;;;;;5031560;28;20587;-70
2021/11/04 09:00:54;;;;;;;20.50;12.00;;;6.90;99.90;;;;;;5035302;28;20194;-72
2021/11/04 09:03:20;;;;;;;12.40;10.10;;;6.90;99.90;;;;;;5033724;28;20176;-73
2021/11/04 09:05:47;;;;;;;22.97;11.47;;;6.80;99.90;;;;;;5034079;28;21004;-72
2021/11/04 09:08:13;;;;;;;15.30;8.60;;;6.80;99.90;;;;;;5034405;28;20838;-73
2021/11/04 09:10:39;;;;;;;18.27;9.57;;;6.80;99.90;;;;;;5034454;28;20406;-70
2021/11/04 09:13:05;;;;;;;19.20;12.70;;;6.80;99.90;;;;;;5035310;28;20497;-72
2021/11/04 09:15:30;;;;;;;20.23;11.87;;;6.70;99.90;;;;;;5035228;28;20446;-73
2021/11/04 09:17:57;;;;;;;18.23;11.70;;;6.80;99.90;;;;;;5036364;28;20318;-76
2021/11/04 09:20:23;;;;;;;18.97;11.30;;;6.80;99.90;;;;;;5035983;28;20233;-73
2021/11/04 09:22:50;;;;;;;15.60;10.10;;;6.70;99.90;;;;;;5034898;28;20414;-73
2021/11/04 09:25:18;;;;;;;15.37;9.80;;;6.70;99.90;;;;;;5035313;28;20227;-73
2021/11/04 09:27:46;;;;;;;11.80;8.63;;;6.70;99.90;;;;;;5035186;28;20429;-72
2021/11/04 09:30:12;;;;;;;15.97;8.53;;;6.70;99.90;;;;;;5033806;28;20441;-72
2021/11/04 09:32:39;;;;;;;15.10;9.60;;;6.70;99.90;;;;;;5033600;28;20438;-70
2021/11/04 09:35:05;;;;;;;16.30;9.37;;;6.70;99.90;;;;;;5032726;28;20905;-70
2021/11/04 09:37:31;;;;;;;18.47;9.57;;;6.70;99.90;;;;;;5032602;28;20421;-71
2021/11/04 09:39:56;;;;;;;16.27;10.60;;;6.70;99.90;;;;;;5032409;28;20442;-70
2021/11/04 09:42:22;;;;;;;24.30;12.83;;;6.80;99.90;;;;;;5032693;28;20635;-70
2021/11/04 09:44:50;;;;;;;17.63;11.17;;;6.80;99.90;;;;;;5032583;28;20204;-70
2021/11/04 09:47:23;;;;;;;17.93;10.10;;;6.80;99.90;;;;;;5032201;28;20425;-70
2021/11/04 09:49:52;;;;;;;9.63;6.53;;;6.70;99.90;;;;;;5032778;28;20426;-69
2021/11/04 09:52:28;;;;;;;12.10;8.20;;;6.70;99.90;;;;;;5013804;28;20930;-70
2021/11/04 09:54:55;;;;;;;12.20;8.73;;;6.70;99.90;;;;;;5012544;28;20418;-69
2021/11/04 09:57:23;;;;;;;17.37;11.50;;;6.70;99.90;;;;;;5031495;28;20414;-69
2021/11/04 09:59:49;;;;;;;14.93;8.60;;;6.70;99.90;;;;;;5032112;28;20434;-69
2021/11/04 10:02:19;;;;;;;16.03;8.97;;;6.70;99.90;;;;;;5032205;28;20768;-69
2021/11/04 10:04:46;;;;;;;9.50;6.10;;;6.70;99.90;;;;;;5032075;28;20473;-69
2021/11/04 10:07:15;;;;;;;9.60;6.63;;;6.70;99.90;;;;;;5032510;28;20411;-70
2021/11/04 10:09:42;;;;;;;16.73;6.73;;;6.60;99.90;;;;;;5032284;28;20438;-70
2021/11/04 10:12:12;;;;;;;11.63;7.50;;;6.60;99.90;;;;;;5032326;28;20468;-71
2021/11/04 10:14:39;;;;;;;13.03;7.73;;;6.60;99.90;;;;;;5033384;28;20972;-71
2021/11/04 10:17:23;;;;;;;10.67;6.40;;;6.60;99.90;;;;;;5032955;28;20407;-70
2021/11/04 10:19:48;;;;;;;10.20;8.87;;;6.60;99.90;;;;;;5032086;28;20499;-71
2021/11/04 10:22:26;;;;;;;12.10;6.13;;;6.60;99.90;;;;;;5028469;28;20898;-70
2021/11/04 10:24:52;;;;;;;12.30;7.20;;;6.70;99.90;;;;;;5023588;28;20199;-70
2021/11/04 10:27:33;;;;;;;9.97;6.13;;;6.60;99.90;;;;;;5022604;28;20484;-70
2021/11/04 10:30:04;;;;;;;11.23;6.13;;;6.60;99.90;;;;;;5030678;28;20430;-70
2021/11/04 10:32:32;;;;;;;14.17;8.27;;;6.60;99.90;;;;;;5012338;28;20407;-70
2021/11/04 10:35:08;;;;;;;12.70;7.63;;;6.60;99.90;;;;;;5012708;28;20416;-70
2021/11/04 10:37:50;;;;;;;11.30;6.17;;;6.60;99.90;;;;;;5012504;28;20409;-70
2021/11/04 10:40:19;;;;;;;10.27;6.17;;;6.60;99.90;;;;;;5026323;28;20497;-71
2021/11/04 10:42:53;;;;;;;10.70;6.70;;;6.60;99.90;;;;;;5032253;28;20414;-69
2021/11/04 10:45:21;;;;;;;12.50;7.47;;;6.60;99.90;;;;;;5014205;28;20821;-70
2021/11/04 10:47:47;;;;;;;9.47;5.87;;;6.60;99.90;;;;;;5023042;28;20506;-69
2021/11/04 10:50:22;;;;;;;10.37;5.60;;;6.60;99.90;;;;;;5011658;28;20686;-70
2021/11/04 10:52:48;;;;;;;7.43;6.50;;;6.60;99.90;;;;;;5012512;28;20168;-69
2021/11/04 10:55:14;;;;;;;11.17;7.30;;;6.60;99.90;;;;;;5011871;28;20442;-71
2021/11/04 10:57:41;;;;;;;10.60;5.80;;;6.70;99.90;;;;;;5022805;28;20583;-71
2021/11/04 11:00:38;;;;;;;8.80;5.20;;;6.70;99.90;;;;;;5012194;28;20423;-71
2021/11/04 11:03:04;;;;;;;6.50;5.87;;;6.70;99.90;;;;;;5011482;28;20481;-71
2021/11/04 11:05:31;;;;;;;7.83;4.40;;;6.70;99.90;;;;;;5029830;28;20453;-71
2021/11/04 11:07:57;;;;;;;7.30;4.40;;;6.70;99.90;;;;;;5031294;28;20210;-69
2021/11/04 11:10:22;;;;;;;9.90;6.60;;;6.60;99.90;;;;;;5031211;28;20421;-69
2021/11/04 11:12:48;;;;;;;6.77;4.80;;;6.70;99.90;;;;;;5031586;28;20403;-69
2021/11/04 11:15:15;;;;;;;4.67;4.10;;;6.70;99.90;;;;;;5031604;28;20684;-70
2021/11/04 11:17:42;;;;;;;4.93;3.53;;;6.60;99.90;;;;;;5031463;28;20786;-69
2021/11/04 11:20:09;;;;;;;8.13;4.77;;;6.60;99.90;;;;;;5030964;28;20407;-70
2021/11/04 11:22:38;;;;;;;6.33;4.00;;;6.70;99.90;;;;;;5031362;28;20440;-71
2021/11/04 11:25:04;;;;;;;5.13;4.63;;;6.60;99.90;;;;;;5031325;28;20826;-69
2021/11/04 11:27:30;;;;;;;10.10;4.80;;;6.70;99.90;;;;;;5033844;28;20410;-69
2021/11/04 11:29:56;;;;;;;9.50;4.97;;;6.70;99.90;;;;;;5033289;28;20426;-70
2021/11/04 11:32:24;;;;;;;7.87;5.10;;;6.70;99.90;;;;;;5015883;28;20172;-69
2021/11/04 11:35:12;;;;;;;6.77;3.30;;;6.70;99.90;;;;;;5014958;28;20470;-69
2021/11/04 11:37:54;;;;;;;8.43;4.53;;;6.70;99.90;;;;;;5015362;28;20457;-70
2021/11/04 11:40:20;;;;;;;3.67;3.10;;;6.70;99.90;;;;;;5015699;28;20539;-69
2021/11/04 11:42:59;;;;;;;7.83;5.00;;;6.70;99.90;;;;;;5015555;28;20829;-69
2021/11/04 11:45:26;;;;;;;7.03;4.33;;;6.70;99.90;;;;;;5015400;28;20553;-69
2021/11/04 11:47:51;;;;;;;6.67;3.97;;;6.70;99.90;;;;;;5015598;28;20403;-69
2021/11/04 11:50:27;;;;;;;4.57;3.57;;;6.70;99.90;;;;;;5015100;28;20425;-69
2021/11/04 11:53:01;;;;;;;4.73;3.73;;;6.70;99.90;;;;;;5015511;28;20214;-69
2021/11/04 11:55:38;;;;;;;5.57;3.90;;;6.80;99.90;;;;;;5015067;28;20468;-70
2021/11/04 11:58:30;;;;;;;7.13;4.60;;;6.80;99.90;;;;;;5043976;28;20513;-70
2021/11/04 12:01:16;;;;;;;4.10;3.70;;;6.80;99.90;;;;;;5041006;28;20761;-70
2021/11/04 12:03:46;;;;;;;9.17;4.80;;;6.80;99.90;;;;;;5034458;28;20453;-69
2021/11/04 12:06:15;;;;;;;4.33;3.63;;;6.80;99.90;;;;;;5034425;28;20399;-69
2021/11/04 12:08:47;;;;;;;4.57;4.17;;;6.90;99.90;;;;;;5034839;28;20450;-70
2021/11/04 12:14:23;;;;;;;5.70;4.33;;;7.00;99.90;;;;;;5034285;28;20441;-68
2021/11/04 12:17:01;;;;;;;5.77;3.50;;;6.90;99.90;;;;;;5034418;28;20414;-69
2021/11/04 12:19:37;;;;;;;7.37;4.77;;;6.90;99.90;;;;;;5033991;28;20442;-69
2021/11/04 12:22:05;;;;;;;9.30;3.33;;;7.00;99.90;;;;;;5034223;28;20444;-71
2021/11/04 12:24:30;;;;;;;6.70;5.50;;;7.00;99.90;;;;;;5023594;28;20485;-69
2021/11/04 12:26:56;;;;;;;5.90;4.40;;;7.00;99.90;;;;;;5034063;28;20471;-73
2021/11/04 12:29:26;;;;;;;4.80;3.20;;;7.00;99.90;;;;;;5034274;28;20184;-68
2021/11/04 12:31:51;;;;;;;2.77;2.57;;;7.00;99.90;;;;;;5034266;28;20175;-70
2021/11/04 12:34:26;;;;;;;3.43;3.00;;;6.90;99.90;;;;;;5026566;28;20796;-70
2021/11/04 12:36:53;;;;;;;5.90;3.40;;;6.90;99.90;;;;;;5014339;28;20176;-70
2021/11/04 12:39:31;;;;;;;5.30;4.47;;;7.00;99.90;;;;;;5014491;28;20435;-70
2021/11/04 12:41:58;;;;;;;3.03;2.70;;;7.00;99.90;;;;;;5014377;28;20415;-69
2021/11/04 12:44:29;;;;;;;4.17;2.53;;;7.00;99.90;;;;;;5029109;28;20907;-70
2021/11/04 12:46:59;;;;;;;5.63;3.40;;;7.10;99.90;;;;;;5031835;28;20412;-70
2021/11/04 12:49:31;;;;;;;6.40;4.13;;;7.20;99.90;;;;;;5033861;28;20426;-70
2021/11/04 12:51:58;;;;;;;2.43;2.23;;;7.10;99.90;;;;;;5033394;28;20414;-69
2021/11/04 12:54:32;;;;;;;4.60;2.47;;;7.00;99.90;;;;;;5034076;28;20433;-69